createdAt,value
2022-10-26T00:01:23.963Z,4.13
2022-10-26T00:03:52.596Z,3.42
2022-10-26T00:06:22.801Z,3.83
2022-10-26T00:08:51.509Z,3.63
2022-10-26T00:11:20.028Z,3.72
2022-10-26T00:13:48.612Z,3.75
2022-10-26T00:16:27.035Z,4.15
2022-10-26T00:18:55.485Z,3.47
2022-10-26T00:21:23.473Z,3.38
2022-10-26T00:23:51.632Z,3.03
2022-10-26T00:26:19.498Z,3.03
2022-10-26T00:28:47.862Z,3.08
2022-10-26T00:31:17.086Z,3.10
2022-10-26T00:33:45.329Z,3.28
2022-10-26T00:36:18.520Z,3.40
2022-10-26T00:38:51.930Z,3.25
2022-10-26T00:41:23.595Z,3.08
2022-10-26T00:43:52.793Z,2.97
2022-10-26T00:46:30.583Z,3.67
2022-10-26T00:49:14.938Z,3.67
2022-10-26T00:51:48.450Z,3.20
2022-10-26T00:54:21.544Z,3.30
2022-10-26T00:56:54.905Z,2.70
2022-10-26T00:59:24.007Z,2.90
2022-10-26T01:01:52.892Z,2.72
2022-10-26T01:04:21.174Z,2.85
2022-10-26T01:06:49.982Z,3.03
2022-10-26T01:09:21.170Z,2.88
2022-10-26T01:11:49.304Z,3.00
2022-10-26T01:14:20.459Z,3.00
2022-10-26T01:17:09.986Z,2.63
2022-10-26T01:20:14.751Z,3.15
2022-10-26T01:23:02.204Z,2.70
2022-10-26T01:26:02.400Z,3.00
2022-10-26T01:28:33.031Z,2.55
2022-10-26T01:31:03.526Z,2.72
2022-10-26T01:33:33.911Z,2.50
2022-10-26T01:36:08.625Z,2.50
2022-10-26T01:38:53.906Z,2.27
2022-10-26T01:41:35.036Z,2.67
2022-10-26T01:44:11.632Z,2.75
2022-10-26T01:46:44.627Z,2.80
2022-10-26T01:49:15.317Z,2.78
2022-10-26T01:51:46.081Z,2.60
2022-10-26T01:54:14.438Z,2.70
2022-10-26T01:56:45.710Z,2.83
2022-10-26T01:59:16.700Z,2.80
2022-10-26T02:01:53.301Z,2.80
2022-10-26T02:04:39.217Z,2.53
2022-10-26T02:07:19.857Z,2.60
2022-10-26T02:10:05.611Z,2.42
2022-10-26T02:12:57.721Z,3.13
2022-10-26T02:15:35.096Z,2.25
2022-10-26T02:18:09.008Z,2.47
2022-10-26T02:20:45.899Z,2.92
2022-10-26T02:23:15.518Z,2.53
2022-10-26T02:25:49.652Z,3.00
2022-10-26T02:28:25.252Z,2.35
2022-10-26T02:30:57.418Z,2.40
2022-10-26T02:33:28.279Z,2.58
2022-10-26T02:36:03.437Z,2.45
2022-10-26T02:38:35.260Z,2.85
2022-10-26T02:41:05.454Z,2.88
2022-10-26T02:43:39.395Z,2.43
2022-10-26T02:46:12.838Z,2.65
2022-10-26T02:48:42.208Z,2.17
2022-10-26T02:51:17.942Z,2.72
2022-10-26T02:53:52.265Z,2.67
2022-10-26T02:56:29.546Z,2.77
2022-10-26T02:59:04.064Z,4.22
2022-10-26T03:01:34.732Z,4.25
2022-10-26T03:04:03.489Z,4.30
2022-10-26T03:06:31.529Z,3.83
2022-10-26T03:09:00.201Z,3.80
2022-10-26T03:11:28.422Z,3.70
2022-10-26T03:13:57.036Z,4.03
2022-10-26T03:16:26.444Z,3.58
2022-10-26T03:18:55.046Z,3.95
2022-10-26T03:21:23.399Z,3.53
2022-10-26T03:23:51.859Z,3.20
2022-10-26T03:26:20.434Z,3.08
2022-10-26T03:28:48.880Z,3.13
2022-10-26T03:31:17.250Z,2.90
2022-10-26T03:33:45.393Z,3.53
2022-10-26T03:36:13.525Z,2.80
2022-10-26T03:38:41.947Z,3.17
2022-10-26T03:41:10.004Z,3.53
2022-10-26T03:43:38.029Z,3.35
2022-10-26T03:46:07.386Z,3.83
2022-10-26T03:48:35.743Z,3.17
2022-10-26T03:51:03.586Z,3.83
2022-10-26T03:53:31.945Z,3.38
2022-10-26T03:56:00.125Z,2.90
2022-10-26T03:58:28.694Z,3.30
2022-10-26T04:00:56.956Z,3.08
2022-10-26T04:03:25.543Z,3.60
2022-10-26T04:05:53.917Z,2.83
2022-10-26T04:08:22.236Z,3.40
2022-10-26T04:10:50.370Z,3.30
2022-10-26T04:13:18.894Z,3.37
2022-10-26T04:15:47.205Z,3.15
2022-10-26T04:18:15.538Z,3.17
2022-10-26T04:20:43.685Z,3.92
2022-10-26T04:23:17.449Z,3.65
2022-10-26T04:25:46.385Z,3.13
2022-10-26T04:28:15.203Z,3.25
2022-10-26T04:30:43.692Z,3.22
2022-10-26T04:33:11.813Z,3.65
2022-10-26T04:35:40.455Z,3.38
2022-10-26T04:38:08.889Z,3.13
2022-10-26T04:40:36.979Z,3.60
2022-10-26T04:43:05.181Z,3.35
2022-10-26T04:45:35.092Z,3.22
2022-10-26T04:48:10.968Z,3.17
2022-10-26T04:50:40.193Z,3.40
2022-10-26T04:53:09.323Z,3.63
2022-10-26T04:55:37.874Z,3.35
2022-10-26T04:58:06.675Z,3.08
2022-10-26T05:00:35.526Z,3.60
2022-10-26T05:03:05.262Z,3.80
2022-10-26T05:05:35.188Z,3.38
2022-10-26T05:08:03.787Z,3.53
2022-10-26T05:10:32.127Z,3.38
2022-10-26T05:13:01.073Z,3.42
2022-10-26T05:15:29.281Z,3.47
2022-10-26T05:17:58.958Z,3.80
2022-10-26T05:20:29.934Z,3.90
2022-10-26T05:23:02.648Z,3.70
2022-10-26T05:25:32.441Z,3.83
2022-10-26T05:28:02.231Z,4.50
2022-10-26T05:30:31.327Z,3.70
2022-10-26T05:33:02.593Z,3.47
2022-10-26T05:35:31.724Z,3.70
2022-10-26T05:37:59.962Z,3.38
2022-10-26T05:40:28.296Z,3.40
2022-10-26T05:43:04.075Z,3.47
2022-10-26T05:45:32.674Z,3.28
2022-10-26T05:48:02.848Z,3.72
2022-10-26T05:50:32.049Z,3.85
2022-10-26T05:53:00.295Z,3.47
2022-10-26T05:55:29.166Z,3.95
2022-10-26T05:57:57.722Z,4.00
2022-10-26T06:00:28.337Z,3.97
2022-10-26T06:03:23.879Z,4.45
2022-10-26T06:05:57.711Z,4.23
2022-10-26T06:08:30.279Z,4.13
2022-10-26T06:11:03.480Z,4.50
2022-10-26T06:13:32.032Z,4.65
2022-10-26T06:16:43.350Z,4.20
2022-10-26T06:19:29.285Z,5.90
2022-10-26T06:22:11.972Z,3.93
2022-10-26T06:25:15.483Z,4.25
2022-10-26T06:28:33.715Z,4.00
2022-10-26T06:31:02.173Z,3.78
2022-10-26T06:33:30.993Z,3.83
2022-10-26T06:36:21.613Z,4.10
2022-10-26T06:39:00.394Z,4.53
2022-10-26T06:41:31.621Z,3.70
2022-10-26T06:44:00.318Z,4.28
2022-10-26T06:46:44.510Z,3.83
2022-10-26T06:49:31.987Z,4.00
2022-10-26T06:52:23.152Z,3.88
2022-10-26T06:54:53.497Z,4.13
2022-10-26T06:57:28.517Z,3.80
2022-10-26T07:00:05.274Z,4.38
2022-10-26T07:02:33.694Z,4.00
2022-10-26T07:05:02.078Z,4.22
2022-10-26T07:07:31.836Z,4.00
2022-10-26T07:10:00.045Z,4.75
2022-10-26T07:12:32.175Z,4.70
2022-10-26T07:15:01.668Z,4.50
2022-10-26T07:17:31.006Z,4.47
2022-10-26T07:19:59.262Z,3.83
2022-10-26T07:22:27.320Z,3.22
2022-10-26T07:24:57.072Z,3.58
2022-10-26T07:27:30.423Z,3.90
2022-10-26T07:29:58.415Z,3.80
2022-10-26T07:32:26.447Z,3.05
2022-10-26T07:34:54.794Z,3.25
2022-10-26T07:37:22.618Z,3.38
2022-10-26T07:39:56.534Z,3.65
2022-10-26T07:42:25.774Z,3.90
2022-10-26T07:44:53.763Z,3.90
2022-10-26T07:47:22.447Z,3.67
2022-10-26T07:49:50.422Z,4.10
2022-10-26T07:52:21.393Z,4.50
2022-10-26T07:54:49.541Z,4.30
2022-10-26T07:57:18.047Z,4.63
2022-10-26T07:59:46.201Z,4.30
2022-10-26T08:02:14.177Z,3.35
2022-10-26T08:04:42.303Z,3.28
2022-10-26T08:07:11.666Z,3.90
2022-10-26T08:09:40.089Z,3.53
2022-10-26T08:12:08.075Z,3.40
2022-10-26T08:14:36.139Z,3.50
2022-10-26T08:17:04.263Z,3.55
2022-10-26T08:19:32.238Z,3.70
2022-10-26T08:22:00.260Z,3.90
2022-10-26T08:24:28.306Z,3.88
2022-10-26T08:26:56.400Z,3.38
2022-10-26T08:29:27.508Z,2.90
2022-10-26T08:31:57.421Z,3.40
2022-10-26T08:34:25.402Z,3.50
2022-10-26T08:36:53.329Z,4.40
2022-10-26T08:39:21.700Z,4.50
2022-10-26T08:41:55.202Z,5.13
2022-10-26T08:44:36.657Z,4.00
2022-10-26T08:47:12.862Z,5.10
2022-10-26T08:50:07.662Z,3.97
2022-10-26T08:53:05.003Z,3.13
2022-10-26T08:58:18.177Z,3.38
2022-10-26T09:00:50.456Z,3.70
2022-10-26T09:03:19.518Z,3.85
2022-10-26T09:05:50.239Z,3.47
2022-10-26T09:08:32.008Z,4.10
2022-10-26T09:11:25.393Z,4.18
2022-10-26T09:14:14.247Z,3.83
2022-10-26T09:16:48.408Z,4.10
2022-10-26T09:20:03.168Z,3.60
2022-10-26T09:22:41.714Z,3.72
2022-10-26T09:25:24.224Z,3.88
2022-10-26T09:27:59.371Z,3.60
2022-10-26T09:30:27.601Z,3.50
2022-10-26T09:33:19.442Z,3.85
2022-10-26T09:36:01.856Z,3.63
2022-10-26T09:38:33.138Z,3.83
2022-10-26T09:41:13.354Z,3.77
2022-10-26T09:43:51.212Z,3.90
2022-10-26T09:46:41.428Z,3.90
2022-10-26T09:49:14.639Z,3.78
2022-10-26T09:51:46.670Z,3.90
2022-10-26T09:54:17.868Z,4.40
2022-10-26T09:56:52.788Z,4.10
2022-10-26T09:59:24.881Z,4.38
2022-10-26T10:01:52.934Z,5.25
2022-10-26T10:04:23.371Z,4.65
2022-10-26T10:06:54.152Z,4.60
2022-10-26T10:09:23.683Z,4.97
2022-10-26T10:12:04.223Z,5.35
2022-10-26T10:14:41.120Z,5.80
2022-10-26T10:17:20.809Z,5.97
2022-10-26T10:19:49.531Z,6.10
2022-10-26T10:22:20.188Z,5.32
2022-10-26T10:25:02.626Z,5.45
2022-10-26T10:27:33.748Z,5.40
2022-10-26T10:30:23.581Z,5.70
2022-10-26T10:33:13.346Z,5.33
2022-10-26T10:35:51.297Z,5.35
2022-10-26T10:38:22.270Z,5.18
2022-10-26T10:41:00.091Z,5.85
2022-10-26T10:43:28.913Z,5.22
2022-10-26T10:46:00.122Z,5.23
2022-10-26T10:48:29.788Z,5.93
2022-10-26T10:51:03.150Z,5.68
2022-10-26T10:53:49.759Z,5.70
2022-10-26T10:56:42.874Z,5.60
2022-10-26T10:59:32.398Z,5.40
2022-10-26T11:02:30.617Z,4.78
2022-10-26T11:05:23.299Z,4.90
2022-10-26T11:08:07.951Z,5.30
2022-10-26T11:10:41.278Z,4.85
2022-10-26T11:13:28.511Z,4.53
2022-10-26T11:16:19.706Z,4.53
2022-10-26T11:19:14.183Z,4.63
2022-10-26T11:21:45.019Z,4.47
2022-10-26T11:24:28.679Z,4.90
2022-10-26T11:27:17.885Z,4.60
2022-10-26T11:30:04.121Z,4.88
2022-10-26T11:32:45.288Z,4.82
2022-10-26T11:35:32.153Z,4.80
2022-10-26T11:38:10.767Z,5.30
2022-10-26T11:41:07.155Z,4.67
2022-10-26T11:43:43.116Z,4.40
2022-10-26T11:46:29.082Z,4.30
2022-10-26T11:49:12.302Z,4.72
2022-10-26T11:52:03.669Z,4.90
2022-10-26T11:54:40.475Z,4.83
2022-10-26T11:57:11.301Z,5.22
2022-10-26T11:59:46.642Z,4.47
2022-10-26T12:02:26.073Z,4.82
2022-10-26T12:05:05.926Z,5.13
2022-10-26T12:07:38.778Z,4.80
2022-10-26T12:10:23.808Z,4.85
2022-10-26T12:12:56.820Z,4.90
2022-10-26T12:18:54.650Z,4.85
2022-10-26T12:21:29.484Z,4.73
2022-10-26T12:24:01.782Z,4.78
2022-10-26T12:26:29.857Z,4.93
2022-10-26T12:29:04.078Z,4.38
2022-10-26T12:31:37.957Z,5.00
2022-10-26T12:34:14.741Z,4.40
2022-10-26T12:37:12.223Z,4.53
2022-10-26T12:39:42.713Z,5.00
2022-10-26T12:42:10.626Z,4.85
2022-10-26T12:44:48.810Z,4.88
2022-10-26T12:47:49.592Z,4.13
2022-10-26T12:50:25.843Z,4.32
2022-10-26T12:53:04.840Z,4.22
2022-10-26T12:55:50.592Z,4.57
2022-10-26T12:58:21.585Z,4.60
2022-10-26T13:01:45.195Z,4.80
2022-10-26T13:04:32.192Z,4.53
2022-10-26T13:07:19.246Z,5.18
2022-10-26T13:09:57.068Z,4.63
2022-10-26T13:12:27.392Z,4.35
2022-10-26T13:15:06.694Z,4.27
2022-10-26T13:17:36.029Z,4.30
2022-10-26T13:20:06.747Z,4.30
2022-10-26T13:22:46.001Z,4.57
2022-10-26T13:25:40.401Z,4.13
2022-10-26T13:28:32.821Z,4.63
2022-10-26T13:31:01.043Z,4.57
2022-10-26T13:33:38.428Z,4.00
2022-10-26T13:36:24.340Z,4.03
2022-10-26T13:38:53.002Z,4.70
2022-10-26T13:41:37.094Z,4.57
2022-10-26T13:44:07.892Z,4.40
2022-10-26T13:46:39.903Z,4.43
2022-10-26T13:49:23.712Z,4.78
2022-10-26T13:51:53.672Z,4.72
2022-10-26T13:54:51.862Z,4.03
2022-10-26T13:57:43.105Z,4.60
2022-10-26T14:00:24.414Z,4.57
2022-10-26T14:02:52.795Z,4.47
2022-10-26T14:05:21.289Z,4.20
2022-10-26T14:07:54.290Z,4.23
2022-10-26T14:10:32.882Z,4.32
2022-10-26T14:13:02.111Z,4.22
2022-10-26T14:15:32.637Z,4.63
2022-10-26T14:18:03.929Z,4.40
2022-10-26T14:20:32.671Z,4.30
2022-10-26T14:23:00.851Z,4.70
2022-10-26T14:25:42.013Z,4.90
2022-10-26T14:28:34.142Z,4.90
2022-10-26T14:31:40.702Z,4.65
2022-10-26T14:34:13.159Z,4.27
2022-10-26T14:36:46.439Z,4.45
2022-10-26T14:39:30.468Z,4.70
2022-10-26T14:42:01.124Z,4.85
2022-10-26T14:44:30.665Z,4.97
2022-10-26T14:46:58.932Z,5.00
2022-10-26T14:49:28.890Z,5.07
2022-10-26T14:52:05.419Z,4.88
2022-10-26T14:54:35.114Z,5.00
2022-10-26T14:57:09.028Z,5.07
2022-10-26T14:59:37.306Z,5.23
2022-10-26T15:02:24.815Z,5.47
2022-10-26T15:36:18.572Z,6.75
2022-10-26T15:38:48.619Z,7.00
2022-10-26T15:41:38.843Z,7.87
2022-10-26T15:44:16.716Z,6.93
2022-10-26T15:46:46.584Z,8.02
2022-10-26T15:49:21.799Z,8.02
2022-10-26T15:51:50.661Z,7.32
2022-10-26T15:54:18.919Z,6.57
2022-10-26T15:56:48.228Z,7.50
2022-10-26T15:59:19.003Z,7.40
2022-10-26T16:01:47.446Z,7.38
2022-10-26T16:04:15.512Z,6.80
2022-10-26T16:06:44.065Z,6.60
2022-10-26T16:09:16.136Z,7.60
2022-10-26T16:11:45.163Z,6.65
2022-10-26T16:14:13.427Z,6.30
2022-10-26T16:16:41.763Z,6.70
2022-10-26T16:19:30.223Z,7.38
2022-10-26T16:21:59.795Z,7.10
2022-10-26T16:24:29.971Z,7.43
2022-10-26T16:26:58.783Z,7.53
2022-10-26T16:29:27.201Z,6.65
2022-10-26T16:31:55.347Z,8.25
2022-10-26T16:34:23.500Z,8.67
2022-10-26T16:36:51.744Z,7.65
2022-10-26T16:39:19.828Z,8.18
2022-10-26T16:41:50.880Z,9.00
2022-10-26T16:44:19.489Z,7.53
2022-10-26T16:46:47.507Z,8.90
2022-10-26T16:49:15.591Z,8.03
2022-10-26T16:51:43.627Z,8.77
2022-10-26T16:54:11.999Z,8.63
2022-10-26T16:56:39.813Z,8.15
2022-10-26T16:59:09.724Z,8.43
2022-10-26T17:01:38.140Z,8.57
2022-10-26T17:04:06.317Z,8.10
2022-10-26T17:06:34.924Z,8.70
2022-10-26T17:09:02.776Z,7.90
2022-10-26T17:11:30.990Z,7.88
2022-10-26T17:13:58.969Z,7.13
2022-10-26T17:16:27.217Z,7.70
2022-10-26T17:18:55.701Z,7.32
2022-10-26T17:21:35.728Z,7.05
2022-10-26T17:24:03.992Z,7.43
2022-10-26T17:26:31.980Z,17.58
2022-10-26T17:29:00.555Z,10.30
2022-10-26T17:31:28.548Z,9.68
2022-10-26T17:33:57.943Z,10.63
2022-10-26T17:36:27.028Z,9.32
2022-10-26T17:38:59.059Z,8.20
2022-10-26T17:41:30.317Z,9.33
2022-10-26T17:43:58.519Z,10.30
2022-10-26T17:46:28.867Z,11.18
2022-10-26T17:48:59.374Z,11.45
2022-10-26T17:51:29.485Z,9.82
2022-10-26T17:53:59.701Z,10.23
2022-10-26T17:56:30.899Z,10.27
2022-10-26T17:59:01.373Z,9.35
2022-10-26T18:01:30.055Z,9.23
2022-10-26T18:03:58.431Z,8.63
2022-10-26T18:06:26.705Z,8.63
2022-10-26T18:08:56.426Z,8.57
2022-10-26T18:11:27.478Z,7.80
2022-10-26T18:13:57.010Z,7.72
2022-10-26T18:16:26.980Z,7.15
2022-10-26T18:19:05.361Z,7.13
2022-10-26T18:21:39.907Z,9.02
2022-10-26T18:24:11.551Z,9.57
2022-10-26T18:26:39.947Z,8.33
2022-10-26T18:29:08.246Z,8.35
2022-10-26T18:31:36.358Z,7.70
2022-10-26T18:34:06.548Z,7.43
2022-10-26T18:36:35.192Z,7.35
2022-10-26T18:39:03.355Z,7.50
2022-10-26T18:41:31.414Z,7.35
2022-10-26T18:44:03.094Z,7.90
2022-10-26T18:46:34.244Z,7.38
2022-10-26T18:49:02.599Z,7.10
2022-10-26T18:51:33.722Z,7.57
2022-10-26T18:54:02.761Z,7.50
2022-10-26T18:56:31.276Z,6.88
2022-10-26T18:59:01.054Z,7.88
2022-10-26T19:01:32.246Z,7.45
2022-10-26T19:04:09.354Z,7.63
2022-10-26T19:06:46.178Z,7.57
2022-10-26T19:09:16.368Z,6.95
2022-10-26T19:11:44.797Z,6.75
2022-10-26T19:14:14.186Z,7.40
2022-10-26T19:16:47.343Z,7.38
2022-10-26T19:19:17.309Z,7.23
2022-10-26T19:21:46.667Z,7.50
2022-10-26T19:24:19.407Z,7.38
2022-10-26T19:26:49.022Z,7.32
2022-10-26T19:29:18.776Z,7.28
2022-10-26T19:31:49.546Z,6.70
2022-10-26T19:34:19.611Z,7.13
2022-10-26T19:36:48.056Z,7.07
2022-10-26T19:39:17.448Z,6.03
2022-10-26T19:41:51.770Z,6.35
2022-10-26T19:44:24.497Z,6.23
2022-10-26T19:46:53.874Z,5.67
2022-10-26T19:49:22.212Z,6.10
2022-10-26T19:51:50.271Z,6.05
2022-10-26T19:54:18.172Z,6.25
2022-10-26T19:56:47.245Z,5.93
2022-10-26T19:59:15.713Z,5.73
2022-10-26T20:01:46.664Z,5.30
2022-10-26T20:04:15.732Z,5.60
2022-10-26T20:06:43.857Z,5.70
2022-10-26T20:11:47.184Z,5.97
2022-10-26T20:14:17.301Z,6.10
2022-10-26T20:16:45.563Z,6.15
2022-10-26T20:19:14.681Z,6.70
2022-10-26T20:21:42.816Z,5.47
2022-10-26T20:24:13.790Z,6.03
2022-10-26T20:26:42.380Z,6.27
2022-10-26T20:29:11.866Z,6.63
2022-10-26T20:31:40.167Z,7.07
2022-10-26T20:34:09.258Z,6.28
2022-10-26T20:36:38.285Z,6.60
2022-10-26T20:39:06.921Z,6.43
2022-10-26T20:41:41.880Z,6.60
2022-10-26T20:44:27.725Z,6.88
2022-10-26T20:46:56.058Z,6.65
2022-10-26T20:49:24.205Z,6.70
2022-10-26T20:52:22.167Z,6.70
2022-10-26T20:55:01.502Z,6.43
2022-10-26T20:57:33.807Z,6.43
2022-10-26T21:00:09.463Z,6.85
2022-10-26T21:02:37.919Z,6.15
2022-10-26T21:05:06.506Z,7.00
2022-10-26T21:07:34.766Z,6.87
2022-10-26T21:10:02.814Z,6.73
2022-10-26T21:12:30.881Z,7.00
2022-10-26T21:14:58.950Z,7.53
2022-10-26T21:17:27.387Z,7.25
2022-10-26T21:19:55.300Z,6.45
2022-10-26T21:22:23.524Z,5.77
2022-10-26T21:24:51.554Z,6.28
2022-10-26T21:27:19.687Z,5.85
2022-10-26T21:29:47.626Z,5.50
2022-10-26T21:32:15.793Z,6.68
2022-10-26T21:34:44.386Z,5.73
2022-10-26T21:37:12.517Z,6.00
2022-10-26T21:39:40.656Z,5.00
2022-10-26T21:42:09.158Z,5.22
2022-10-26T21:44:41.608Z,4.35
2022-10-26T21:47:11.197Z,4.25
2022-10-26T21:52:13.016Z,4.32
2022-10-26T21:54:40.846Z,4.18
2022-10-26T21:57:09.047Z,4.35
2022-10-26T21:59:37.074Z,4.25
2022-10-26T22:02:05.241Z,4.10
2022-10-26T22:04:36.181Z,4.10
2022-10-26T22:07:04.455Z,4.32
2022-10-26T22:09:37.339Z,4.22
2022-10-26T22:12:13.836Z,4.20
2022-10-26T22:14:41.972Z,4.20
2022-10-26T22:17:10.614Z,4.40
2022-10-26T22:19:38.674Z,4.13
2022-10-26T22:22:06.696Z,4.88
2022-10-26T22:24:34.688Z,3.80
2022-10-26T22:27:02.651Z,4.43
2022-10-26T22:29:30.558Z,4.03
2022-10-26T22:31:58.673Z,4.50
2022-10-26T22:34:26.774Z,4.20
2022-10-26T22:36:54.978Z,4.25
2022-10-26T22:39:24.605Z,4.05
2022-10-26T22:41:52.699Z,4.10
2022-10-26T22:44:20.602Z,4.05
2022-10-26T22:46:48.713Z,3.90
2022-10-26T22:49:16.829Z,4.03
2022-10-26T22:51:45.006Z,4.18
2022-10-26T22:54:13.962Z,4.22
2022-10-26T22:56:42.346Z,4.75
2022-10-26T22:59:10.188Z,4.57
2022-10-26T23:01:39.883Z,4.83
2022-10-26T23:04:08.978Z,4.68
2022-10-26T23:06:39.814Z,4.63
2022-10-26T23:09:08.320Z,4.47
2022-10-26T23:11:36.529Z,4.75
2022-10-26T23:14:05.201Z,4.57
2022-10-26T23:16:33.208Z,4.43
2022-10-26T23:19:01.420Z,4.45
2022-10-26T23:21:30.058Z,4.50
2022-10-26T23:23:58.676Z,4.57
2022-10-26T23:26:26.979Z,4.57
2022-10-26T23:28:55.230Z,3.93
2022-10-26T23:31:26.290Z,3.70
2022-10-26T23:33:56.341Z,4.43
2022-10-26T23:36:25.815Z,4.38
2022-10-26T23:38:54.035Z,4.30
2022-10-26T23:41:34.380Z,3.93
2022-10-26T23:44:02.635Z,4.10
2022-10-26T23:46:30.925Z,4.25
2022-10-26T23:49:02.400Z,4.53
2022-10-26T23:51:30.520Z,4.22
2022-10-26T23:53:58.477Z,3.85
2022-10-26T23:56:26.529Z,4.20
2022-10-26T23:58:54.923Z,3.90
